Kawasaki, Japan
Current Conditions -  °F | °C
As of 2:30 PM on Tuesday 27 Jan 2015 (Local Time) from RJTT Reporting Station
Broken Clouds Broken Clouds  
Wind Chill: 57°   Ceiling: Unl
Heat Index: 57°   Visibility: 6mi
Dew Point: 46°   Wind: 12mph
Humidity: 67%   Direction: 190°S
Pressure: 29.71"   Gusts: NA
Location:  35.53°N, 139.7°E
Report Text: RJTT 270530Z 19010KT 9999 FEW020 BKN/// 14/08 Q1006 NOSIG
Loading
Personal Weather Stations






























Interactive Weather Map New forecast layout! Learn more

10-Day Weather Forecast

Advertisements
Track Severe Weather on mobile